Lothian, MD

7:08 PM EST on February 08, 2016 (GMT -0500)
APRSWXNET | | Change Station
CLOSE
Current Station
Personal Weather Station
Location: Lothian, MD
Elevation: 98 ft
Nearby Weather Stations
Active Advisory: Winter Storm Warning

Elev 98 ft 38.81 °N, 76.68 °W | Updated 19 minutes ago

Overcast
Overcast
40 °F
Feels Like 40 °F
N
3
Wind Variable Wind from SE
Gusts 8.0 mph

Today
High -- | Low -- °F
--% Chance of Precip.
Yesterday
High -- | Low -- °F
Precip. -- in
Pressure 29.73 in
Visibility 10.0 miles
Clouds Clear
Windchill 40 °F
Dew Point 31 °F
Humidity 71%
Rainfall in
Snow Depth Not available.
7:06 AM 5:35 PM
New Moon, 0% visible
METAR KADW 082358Z AUTO 14009KT 10SM CLR 04/M01 A2970 RMK AO2 SLP066 T00441009 10079 20044 51009
Pressure 29.73 in
Visibility 10.0 miles
Clouds Clear
Windchill 40 °F
Dew Point 31 °F
Humidity 71%
Rainfall in
Snow Depth Not available.
7:06 AM 5:35 PM
New Moon, 0% visible
METAR KADW 082358Z AUTO 14009KT 10SM CLR 04/M01 A2970 RMK AO2 SLP066 T00441009 10079 20044 51009

10-Day Weather Forecast

Almanac

Astronomy

Feb. 08, 2016 Rise Set
Actual Time
Civil Twilight
Nautical Twilight
Astronomical Twilight
Moon
Length of Visible Light
Length of Day
Tomorrow will be .
, % of the Moon is Illuminated

Today's Extremes

State Highs State Lows

Community

WunderPhotos

Upload Photos

1,891,527 photos uploaded!

WunderBlog® & News

Nearby

Air Quality

  Air Quality AQ Index Pollutant
Not available.

Snow Depth

Station Depth Elevation

Earthquake Activity

City Distance Mag. Time & Date
Minimum magnitude displayed is 2.5.

Coastal Water Temperatures

Place Temperature

Stations

Nearby Weather Stations

Station Location Temp. Windchill Dew Point Humidity Wind Precip. Elev Updated Type
                   

Watches & Warnings

Winter Storm Warning
Issued: 6:11 PM EST Feb. 8, 2016 – National Weather Service

... Winter Storm Warning remains in effect from 10 PM this evening
to 6 am EST Wednesday...

* precipitation type... snow

* accumulations... snow accumulation of 4 to 8 inches... with
locally higher amounts possible.

* Timing... precipitation will begin this evening initially as a
rain and snow mix. The precipitation will transition to all
snow by midnight and last through Tuesday night... with periods
of heavy snow during this time.

* Impacts... roads will become snow covered... resulting in
hazardous travel conditions.

* Winds... north 5 to 10 mph.

* Temperatures... in the lower 30s.

Precautionary/preparedness actions...

A Winter Storm Warning for heavy snow means severe winter weather
conditions are expected or occurring. Significant amounts of snow
are forecast that will make travel dangerous. Only travel in an
emergency. If you must travel... keep an extra flashlight...
food... and water in your vehicle in case of an emergency.